Hines Creek, Canada
Current Conditions -  °F | °C
As of 11:00 AM on Wednesday 26 Nov 2014 (Local Time) from CYPE Reporting Station
Overcast Overcast  
Wind Chill: -2°   Ceiling: 7000
Heat Index: 10°   Visibility: 15mi
Dew Point:   Wind: 8mph
Humidity: 85%   Direction: 220°SW
Pressure: 30.14"   Gusts: NA
Location:  56.23°N, 118.6°W
Report Text: CYPE 261800Z 22007KT 15SM OVC070 M12/M14 A3014 RMK AC8 SLP254
Loading
Personal Weather Stations






























Interactive Weather Map New forecast layout! Learn more

10-Day Weather Forecast

Advertisements
Track Severe Weather on mobile